createdAt,value
2018-05-03T00:01:02.145Z,3.58
2018-05-03T00:03:29.281Z,3.03
2018-05-03T00:05:55.691Z,3.58
2018-05-03T00:08:22.063Z,2.80
2018-05-03T00:10:48.456Z,3.12
2018-05-03T00:13:14.828Z,3.78
2018-05-03T00:15:41.917Z,3.87
2018-05-03T00:18:08.271Z,3.00
2018-05-03T00:20:34.671Z,3.58
2018-05-03T00:23:01.043Z,3.83
2018-05-03T00:25:28.160Z,3.05
2018-05-03T00:27:54.517Z,3.45
2018-05-03T00:30:20.889Z,3.50
2018-05-03T00:32:47.324Z,3.50
2018-05-03T00:35:13.734Z,3.65
2018-05-03T00:37:40.881Z,3.72
2018-05-03T00:40:07.251Z,3.50
2018-05-03T00:42:33.608Z,3.62
2018-05-03T00:45:00.792Z,4.03
2018-05-03T00:47:27.905Z,3.30
2018-05-03T00:49:54.322Z,3.37
2018-05-03T00:52:20.701Z,3.97
2018-05-03T00:54:48.819Z,3.37
2018-05-03T00:57:15.179Z,4.03
2018-05-03T00:59:41.560Z,3.90
2018-05-03T01:02:07.996Z,3.83
2018-05-03T01:04:34.407Z,4.00
2018-05-03T01:07:01.529Z,3.50
2018-05-03T01:09:27.915Z,3.75
2018-05-03T01:11:54.300Z,4.40
2018-05-03T01:14:21.495Z,4.18
2018-05-03T01:16:47.871Z,3.67
2018-05-03T01:19:14.262Z,4.00
2018-05-03T01:21:40.683Z,4.35
2018-05-03T01:24:07.030Z,4.00
2018-05-03T01:26:33.460Z,3.90
2018-05-03T01:28:59.862Z,3.40
2018-05-03T01:31:26.221Z,3.58
2018-05-03T01:33:52.603Z,4.43
2018-05-03T01:36:26.685Z,4.28
2018-05-03T01:38:53.040Z,4.53
2018-05-03T01:41:20.175Z,4.12
2018-05-03T01:43:46.553Z,4.20
2018-05-03T01:46:12.935Z,3.83
2018-05-03T01:48:39.288Z,4.20
2018-05-03T01:51:06.423Z,4.53
2018-05-03T01:53:32.779Z,4.45
2018-05-03T01:55:59.159Z,3.83
2018-05-03T01:58:25.538Z,4.20
2018-05-03T02:00:51.944Z,4.47
2018-05-03T02:03:18.308Z,4.50
2018-05-03T02:05:44.703Z,4.53
2018-05-03T02:08:11.105Z,4.45
2018-05-03T02:10:38.271Z,4.47
2018-05-03T02:13:04.692Z,4.40
2018-05-03T02:15:31.071Z,4.70
2018-05-03T02:17:57.451Z,3.60
2018-05-03T02:20:23.816Z,4.30
2018-05-03T02:22:50.939Z,3.70
2018-05-03T02:25:17.315Z,3.72
2018-05-03T02:27:43.703Z,4.30
2018-05-03T02:30:10.057Z,4.00
2018-05-03T02:32:37.196Z,3.80
2018-05-03T02:35:03.597Z,4.00
2018-05-03T02:37:29.962Z,4.05
2018-05-03T02:40:03.981Z,3.67
2018-05-03T02:42:30.367Z,4.18
2018-05-03T02:44:56.786Z,4.40
2018-05-03T02:47:23.152Z,4.45
2018-05-03T02:49:49.574Z,4.78
2018-05-03T02:52:15.945Z,3.60
2018-05-03T02:54:42.355Z,4.20
2018-05-03T02:57:28.059Z,4.35
2018-05-03T03:03:41.068Z,3.72
2018-05-03T03:06:32.153Z,4.45
2018-05-03T03:16:26.348Z,4.28
2018-05-03T03:19:17.342Z,4.35
2018-05-03T03:22:08.630Z,4.95
2018-05-03T03:25:07.740Z,4.78
2018-05-03T03:27:56.613Z,4.20
2018-05-03T03:30:47.682Z,5.05
2018-05-03T03:33:32.629Z,5.37
2018-05-03T03:36:18.251Z,5.28
2018-05-03T03:39:03.894Z,5.82
2018-05-03T03:41:51.032Z,5.60
2018-05-03T03:44:35.881Z,4.93
2018-05-03T03:47:02.242Z,5.47
2018-05-03T03:49:29.341Z,6.07
2018-05-03T03:51:55.713Z,5.50
2018-05-03T03:54:22.127Z,5.70
2018-05-03T03:56:48.504Z,4.90
2018-05-03T03:59:14.886Z,6.30
2018-05-03T04:01:42.353Z,6.00
2018-05-03T04:04:09.500Z,5.20
2018-05-03T04:06:35.913Z,6.15
2018-05-03T04:09:02.344Z,5.70
2018-05-03T04:11:28.723Z,6.20
2018-05-03T04:13:55.089Z,7.10
2018-05-03T04:16:21.471Z,7.30
2018-05-03T04:19:06.933Z,5.90
2018-05-03T04:21:54.036Z,6.12
2018-05-03T04:24:39.062Z,5.70
2018-05-03T04:27:05.450Z,6.60
2018-05-03T04:29:31.796Z,7.25
2018-05-03T04:31:58.917Z,6.20
2018-05-03T04:34:25.270Z,6.22
2018-05-03T04:36:52.399Z,6.37
2018-05-03T04:39:18.777Z,6.93
2018-05-03T04:41:45.171Z,6.43
2018-05-03T04:44:11.521Z,4.85
2018-05-03T04:46:38.668Z,6.20
2018-05-03T04:49:05.961Z,5.62
2018-05-03T04:51:32.329Z,6.70
2018-05-03T04:53:59.459Z,5.32
2018-05-03T04:56:25.949Z,6.20
2018-05-03T04:58:52.329Z,6.22
2018-05-03T05:01:19.417Z,5.80
2018-05-03T05:03:45.896Z,5.93
2018-05-03T05:06:12.291Z,6.65
2018-05-03T05:08:38.685Z,5.80
2018-05-03T05:11:05.036Z,6.55
2018-05-03T05:13:31.482Z,5.95
2018-05-03T05:15:57.956Z,5.78
2018-05-03T05:18:24.340Z,5.97
2018-05-03T05:20:50.751Z,5.87
2018-05-03T05:23:17.876Z,5.80
2018-05-03T05:25:44.320Z,5.97
2018-05-03T05:28:10.710Z,5.57
2018-05-03T05:30:37.180Z,5.37
2018-05-03T05:33:03.508Z,5.43
2018-05-03T05:35:30.679Z,5.95
2018-05-03T05:37:57.802Z,6.45
2018-05-03T05:40:24.229Z,5.70
2018-05-03T05:42:50.664Z,6.07
2018-05-03T05:45:17.080Z,5.45
2018-05-03T05:47:43.627Z,5.57
2018-05-03T05:50:10.727Z,6.62
2018-05-03T05:52:38.060Z,5.62
2018-05-03T05:55:04.437Z,6.22
2018-05-03T05:57:30.805Z,5.53
2018-05-03T05:59:57.249Z,5.70
2018-05-03T06:02:24.409Z,5.22
2018-05-03T06:04:50.844Z,5.85
2018-05-03T06:07:17.313Z,5.53
2018-05-03T06:09:43.721Z,5.30
2018-05-03T06:12:10.209Z,5.87
2018-05-03T06:14:36.610Z,5.68
2018-05-03T06:17:03.160Z,5.55
2018-05-03T06:19:29.538Z,4.90
2018-05-03T06:21:55.894Z,6.75
2018-05-03T06:24:22.339Z,5.37
2018-05-03T06:26:48.731Z,5.45
2018-05-03T06:29:15.122Z,5.00
2018-05-03T06:31:41.532Z,6.12
2018-05-03T06:34:07.944Z,4.95
2018-05-03T06:36:34.350Z,5.18
2018-05-03T06:39:00.718Z,5.72
2018-05-03T06:41:27.099Z,5.78
2018-05-03T06:43:54.236Z,5.47
2018-05-03T06:46:21.394Z,5.40
2018-05-03T06:48:48.524Z,5.68
2018-05-03T06:51:14.975Z,5.43
2018-05-03T06:53:42.162Z,5.22
2018-05-03T06:56:08.536Z,5.32
2018-05-03T06:58:35.686Z,5.55
2018-05-03T07:01:02.049Z,5.20
2018-05-03T07:03:28.440Z,5.70
2018-05-03T07:05:55.582Z,5.85
2018-05-03T07:08:21.996Z,5.78
2018-05-03T07:10:48.359Z,5.10
2018-05-03T07:13:15.554Z,5.50
2018-05-03T07:15:42.041Z,4.47
2018-05-03T07:18:08.406Z,5.45
2018-05-03T07:20:34.815Z,5.70
2018-05-03T07:23:01.205Z,5.20
2018-05-03T07:25:27.728Z,5.97
2018-05-03T07:27:54.122Z,5.75
2018-05-03T07:30:21.445Z,5.57
2018-05-03T07:32:49.149Z,5.85
2018-05-03T07:35:15.554Z,5.75
2018-05-03T07:37:41.993Z,5.47
2018-05-03T07:40:08.453Z,5.80
2018-05-03T07:42:35.115Z,6.32
2018-05-03T07:45:01.580Z,6.10
2018-05-03T07:47:27.987Z,5.45
2018-05-03T07:49:54.478Z,5.82
2018-05-03T07:52:20.875Z,5.18
2018-05-03T07:54:47.997Z,5.62
2018-05-03T07:57:14.400Z,5.53
2018-05-03T07:59:40.792Z,5.70
2018-05-03T08:02:07.251Z,5.45
2018-05-03T08:04:33.644Z,5.60
2018-05-03T08:07:00.849Z,5.82
2018-05-03T08:09:27.240Z,5.50
2018-05-03T08:11:53.686Z,5.32
2018-05-03T08:14:20.068Z,5.10
2018-05-03T08:16:46.443Z,5.78
2018-05-03T08:19:12.832Z,5.78
2018-05-03T08:21:39.236Z,5.80
2018-05-03T08:24:06.371Z,4.65
2018-05-03T08:26:32.728Z,5.45
2018-05-03T08:28:59.270Z,6.25
2018-05-03T08:31:25.727Z,5.00
2018-05-03T08:33:52.860Z,6.25
2018-05-03T08:36:19.221Z,6.12
2018-05-03T08:38:45.587Z,6.50
2018-05-03T08:41:12.035Z,5.75
2018-05-03T08:43:38.432Z,6.20
2018-05-03T08:46:04.901Z,5.62
2018-05-03T08:48:32.049Z,6.40
2018-05-03T08:50:58.457Z,6.40
2018-05-03T08:53:24.882Z,6.15
2018-05-03T08:55:51.341Z,7.05
2018-05-03T08:58:17.761Z,5.75
2018-05-03T09:00:44.193Z,5.90
2018-05-03T09:03:10.585Z,6.15
2018-05-03T09:05:36.980Z,6.60
2018-05-03T09:08:03.364Z,5.90
2018-05-03T09:10:29.716Z,7.05
2018-05-03T09:12:56.133Z,5.97
2018-05-03T09:15:22.496Z,6.43
2018-05-03T09:17:48.877Z,6.82
2018-05-03T09:20:15.303Z,6.43
2018-05-03T09:22:41.706Z,5.87
2018-05-03T09:25:08.871Z,6.10
2018-05-03T09:27:35.272Z,6.82
2018-05-03T09:30:01.658Z,6.10
2018-05-03T09:32:28.141Z,6.32
2018-05-03T09:34:54.527Z,7.22
2018-05-03T09:37:20.959Z,5.20
2018-05-03T09:39:47.380Z,5.12
2018-05-03T09:42:13.784Z,5.20
2018-05-03T09:44:40.284Z,5.68
2018-05-03T09:47:06.627Z,5.43
2018-05-03T09:49:33.042Z,5.35
2018-05-03T09:51:59.452Z,5.57
2018-05-03T09:54:25.869Z,5.62
2018-05-03T09:56:52.278Z,6.05
2018-05-03T09:59:19.340Z,5.90
2018-05-03T10:01:45.725Z,6.68
2018-05-03T10:04:12.116Z,3.87
2018-05-03T10:06:38.544Z,6.18
2018-05-03T10:09:04.972Z,6.18
2018-05-03T10:11:31.432Z,6.18
2018-05-03T10:13:57.839Z,5.82
2018-05-03T10:16:24.242Z,6.47
2018-05-03T10:18:50.638Z,6.37
2018-05-03T10:21:17.045Z,6.47
2018-05-03T10:23:43.435Z,6.70
2018-05-03T10:26:09.858Z,6.68
2018-05-03T10:28:36.304Z,6.47
2018-05-03T10:31:03.499Z,6.87
2018-05-03T10:33:30.020Z,5.60
2018-05-03T10:35:56.540Z,6.57
2018-05-03T10:38:22.929Z,6.53
2018-05-03T10:40:50.076Z,8.10
2018-05-03T10:43:16.539Z,9.27
2018-05-03T10:45:42.941Z,7.68
2018-05-03T10:48:10.084Z,8.52
2018-05-03T10:50:37.236Z,6.93
2018-05-03T10:53:03.673Z,7.65
2018-05-03T10:55:30.820Z,7.03
2018-05-03T10:57:58.054Z,7.85
2018-05-03T11:00:24.553Z,6.40
2018-05-03T11:02:50.973Z,8.00
2018-05-03T11:05:17.488Z,8.70
2018-05-03T11:07:43.948Z,6.25
2018-05-03T11:10:10.376Z,7.32
2018-05-03T11:12:36.873Z,8.50
2018-05-03T11:15:03.308Z,6.72
2018-05-03T11:17:29.705Z,6.72
2018-05-03T11:19:56.892Z,6.75
2018-05-03T11:22:23.321Z,6.53
2018-05-03T11:24:49.734Z,7.30
2018-05-03T11:27:16.127Z,7.22
2018-05-03T11:29:42.528Z,6.72
2018-05-03T11:32:09.009Z,6.70
2018-05-03T11:34:35.468Z,6.65
2018-05-03T11:37:02.055Z,6.97
2018-05-03T11:39:29.410Z,8.73
2018-05-03T11:41:55.812Z,4.25
2018-05-03T11:44:22.235Z,6.32
2018-05-03T11:46:48.731Z,6.72
2018-05-03T11:49:15.201Z,6.78
2018-05-03T11:51:41.656Z,7.53
2018-05-03T11:54:08.076Z,6.40
2018-05-03T11:56:34.512Z,6.40
2018-05-03T11:59:00.899Z,7.27
2018-05-03T12:01:28.095Z,7.28
2018-05-03T12:03:54.563Z,2.92
2018-05-03T12:06:21.071Z,6.85
2018-05-03T12:08:48.161Z,7.80
2018-05-03T12:11:14.653Z,6.40
2018-05-03T12:13:41.112Z,6.15
2018-05-03T12:16:08.307Z,6.07
2018-05-03T12:18:34.713Z,6.33
2018-05-03T12:21:01.180Z,6.57
2018-05-03T12:23:27.602Z,5.40
2018-05-03T12:25:54.037Z,5.83
2018-05-03T12:28:20.508Z,5.70
2018-05-03T12:30:46.930Z,5.87
2018-05-03T12:33:13.432Z,6.60
2018-05-03T12:35:39.822Z,5.85
2018-05-03T12:38:06.257Z,5.00
2018-05-03T12:40:32.631Z,5.87
2018-05-03T12:42:59.056Z,5.62
2018-05-03T12:45:25.566Z,5.80
2018-05-03T12:47:51.968Z,4.40
2018-05-03T12:50:18.400Z,6.10
2018-05-03T12:52:45.547Z,5.60
2018-05-03T12:55:11.937Z,6.23
2018-05-03T12:57:38.351Z,6.23
2018-05-03T13:00:04.789Z,6.20
2018-05-03T13:02:31.171Z,6.27
2018-05-03T13:04:57.545Z,6.93
2018-05-03T13:07:30.941Z,5.77
2018-05-03T13:09:57.388Z,7.00
2018-05-03T13:12:23.776Z,5.30
2018-05-03T13:14:50.256Z,6.20
2018-05-03T13:17:16.687Z,6.00
2018-05-03T13:19:43.056Z,4.77
2018-05-03T13:22:09.529Z,6.43
2018-05-03T13:24:36.008Z,5.50
2018-05-03T13:27:02.527Z,6.97
2018-05-03T13:29:29.628Z,7.00
2018-05-03T13:31:56.817Z,6.93
2018-05-03T13:34:23.245Z,6.40
2018-05-03T13:36:49.638Z,6.67
2018-05-03T13:39:16.806Z,5.73
2018-05-03T13:41:43.258Z,6.60
2018-05-03T13:44:09.679Z,5.50
2018-05-03T13:46:36.104Z,6.77
2018-05-03T13:49:02.538Z,7.63
2018-05-03T13:51:28.955Z,5.80
2018-05-03T13:53:55.467Z,6.10
2018-05-03T13:56:21.927Z,7.20
2018-05-03T13:58:48.359Z,6.57
2018-05-03T14:01:15.561Z,6.80
2018-05-03T14:03:41.953Z,7.00
2018-05-03T14:06:08.607Z,6.70
2018-05-03T14:08:35.073Z,6.90
2018-05-03T14:11:01.514Z,6.90
2018-05-03T14:13:27.965Z,7.63
2018-05-03T14:15:55.120Z,7.37
2018-05-03T14:18:22.293Z,6.03
2018-05-03T14:20:49.578Z,6.57
2018-05-03T14:23:16.617Z,7.10
2018-05-03T14:25:43.060Z,7.10
2018-05-03T14:28:09.459Z,6.67
2018-05-03T14:30:35.904Z,5.70
2018-05-03T14:33:02.290Z,6.47
2018-05-03T14:35:29.459Z,6.53
2018-05-03T14:37:55.843Z,6.60
2018-05-03T14:40:22.274Z,7.80
2018-05-03T14:42:48.732Z,7.03
2018-05-03T14:45:15.163Z,6.90
2018-05-03T14:47:41.681Z,7.00
2018-05-03T14:50:08.812Z,6.53
2018-05-03T14:52:35.266Z,6.23
2018-05-03T14:55:01.700Z,6.00
2018-05-03T14:57:28.882Z,7.77
2018-05-03T14:59:55.253Z,6.67
2018-05-03T15:02:21.675Z,7.23
2018-05-03T15:04:48.080Z,6.10
2018-05-03T15:07:14.848Z,6.00
2018-05-03T15:09:41.278Z,8.10
2018-05-03T15:12:07.679Z,5.57
2018-05-03T15:14:34.109Z,6.33
2018-05-03T15:17:00.491Z,6.57
2018-05-03T15:19:26.884Z,5.33
2018-05-03T15:21:54.000Z,6.70
2018-05-03T15:24:21.147Z,6.70
2018-05-03T15:26:47.535Z,6.23
2018-05-03T15:29:14.735Z,5.20
2018-05-03T15:31:41.191Z,7.00
2018-05-03T15:34:07.620Z,6.40
2018-05-03T15:36:34.019Z,6.17
2018-05-03T15:39:00.453Z,5.43
2018-05-03T15:41:26.924Z,6.00
2018-05-03T15:43:53.356Z,5.60
2018-05-03T15:46:19.765Z,6.03
2018-05-03T15:48:46.189Z,4.57
2018-05-03T15:51:12.606Z,5.30
2018-05-03T15:53:39.018Z,5.70
2018-05-03T15:56:05.449Z,5.53
2018-05-03T15:58:32.614Z,4.70
2018-05-03T16:00:59.045Z,5.80
2018-05-03T16:03:25.452Z,5.10
2018-05-03T16:05:51.903Z,6.20
2018-05-03T16:08:18.321Z,5.37
2018-05-03T16:10:44.766Z,4.90
2018-05-03T16:13:12.015Z,4.33
2018-05-03T16:15:38.430Z,4.90
2018-05-03T16:18:04.852Z,4.73
2018-05-03T16:20:31.333Z,5.10
2018-05-03T16:22:57.706Z,4.40
2018-05-03T16:25:24.122Z,5.33
2018-05-03T16:27:50.530Z,4.57
2018-05-03T16:30:17.022Z,5.30
2018-05-03T16:32:43.437Z,5.10
2018-05-03T16:35:09.828Z,4.03
2018-05-03T16:37:36.228Z,4.50
2018-05-03T16:40:03.393Z,4.97
2018-05-03T16:42:29.795Z,5.23
2018-05-03T16:44:56.234Z,4.80
2018-05-03T16:47:22.676Z,4.63
2018-05-03T16:49:50.789Z,3.67
2018-05-03T16:52:17.338Z,5.33
2018-05-03T16:54:43.761Z,4.50
2018-05-03T16:57:10.189Z,4.80
2018-05-03T16:59:36.627Z,4.23
2018-05-03T17:02:03.118Z,5.00
2018-05-03T17:04:29.537Z,4.80
2018-05-03T17:06:56.788Z,5.13
2018-05-03T17:09:23.212Z,4.40
2018-05-03T17:11:49.607Z,4.97
2018-05-03T17:14:16.059Z,3.90
2018-05-03T17:16:42.562Z,4.37
2018-05-03T17:19:09.021Z,3.70
2018-05-03T17:21:35.405Z,4.40
2018-05-03T17:24:02.616Z,5.03
2018-05-03T17:26:29.841Z,4.73
2018-05-03T17:28:56.347Z,4.90
2018-05-03T17:31:22.805Z,3.83
2018-05-03T17:33:49.332Z,4.80
2018-05-03T17:36:15.735Z,5.00
2018-05-03T17:38:42.202Z,5.00
2018-05-03T17:41:08.680Z,3.80
2018-05-03T17:43:35.087Z,4.83
2018-05-03T17:46:01.546Z,4.50
2018-05-03T17:48:28.043Z,4.50
2018-05-03T17:50:54.491Z,4.70
2018-05-03T17:53:20.902Z,5.10
2018-05-03T17:55:47.387Z,4.37
2018-05-03T17:58:14.553Z,4.87
2018-05-03T18:00:41.000Z,5.00
2018-05-03T18:03:07.389Z,5.50
2018-05-03T18:05:34.607Z,4.43
2018-05-03T18:08:01.034Z,5.33
2018-05-03T18:10:27.414Z,5.83
2018-05-03T18:12:53.914Z,5.17
2018-05-03T18:15:20.338Z,4.90
2018-05-03T18:17:46.717Z,4.93
2018-05-03T18:20:13.213Z,5.13
2018-05-03T18:22:40.493Z,5.13
2018-05-03T18:25:06.937Z,5.17
2018-05-03T18:27:33.489Z,4.40
2018-05-03T18:29:59.908Z,4.80
2018-05-03T18:32:26.371Z,5.70
2018-05-03T18:34:52.777Z,4.40
2018-05-03T18:37:19.202Z,4.17
2018-05-03T18:39:46.626Z,6.00
2018-05-03T18:42:13.107Z,4.93
2018-05-03T18:44:39.537Z,5.23
2018-05-03T18:47:05.999Z,3.97
2018-05-03T18:49:32.580Z,4.93
2018-05-03T18:51:59.111Z,4.17
2018-05-03T18:54:26.267Z,3.93
2018-05-03T18:56:52.721Z,4.20
2018-05-03T18:59:19.253Z,5.37
2018-05-03T19:01:45.730Z,4.83
2018-05-03T19:04:12.154Z,5.57
2018-05-03T19:06:39.384Z,4.67
2018-05-03T19:09:05.823Z,4.67
2018-05-03T19:11:32.312Z,5.17
2018-05-03T19:13:59.468Z,4.10
2018-05-03T19:16:25.924Z,4.87
2018-05-03T19:18:52.583Z,5.03
2018-05-03T19:21:19.128Z,4.60
2018-05-03T19:23:46.314Z,5.50
2018-05-03T19:26:12.737Z,5.10
2018-05-03T19:28:39.153Z,5.23
2018-05-03T19:31:05.609Z,5.80
2018-05-03T19:33:32.042Z,5.23
2018-05-03T19:35:58.472Z,5.33
2018-05-03T19:38:25.827Z,5.47
2018-05-03T19:40:52.328Z,5.60
2018-05-03T19:43:18.714Z,5.03
2018-05-03T19:45:45.138Z,5.20
2018-05-03T19:48:12.316Z,5.23
2018-05-03T19:50:38.845Z,4.90
2018-05-03T19:53:05.371Z,5.07
2018-05-03T19:55:31.820Z,4.73
2018-05-03T19:57:58.327Z,4.97
2018-05-03T20:00:24.768Z,4.97
2018-05-03T20:02:51.251Z,4.53
2018-05-03T20:05:17.664Z,5.13
2018-05-03T20:07:44.881Z,5.20
2018-05-03T20:10:11.372Z,4.90
2018-05-03T20:12:37.874Z,4.63
2018-05-03T20:15:04.315Z,4.80
2018-05-03T20:17:30.761Z,4.90
2018-05-03T20:19:57.266Z,5.70
2018-05-03T20:22:23.910Z,4.70
2018-05-03T20:24:51.166Z,4.53
2018-05-03T20:27:17.598Z,5.17
2018-05-03T20:29:44.822Z,4.97
2018-05-03T20:32:11.297Z,5.33
2018-05-03T20:34:37.759Z,5.23
2018-05-03T20:37:04.232Z,5.00
2018-05-03T20:39:30.666Z,5.50
2018-05-03T20:41:57.133Z,5.43
2018-05-03T20:44:23.552Z,5.47
2018-05-03T20:46:50.058Z,5.00
2018-05-03T20:49:16.565Z,5.30
2018-05-03T20:51:43.026Z,5.07
2018-05-03T20:54:09.551Z,4.67
2018-05-03T20:56:36.073Z,4.60
2018-05-03T20:59:02.492Z,5.07
2018-05-03T21:01:29.561Z,6.95
2018-05-03T21:03:55.984Z,4.70
2018-05-03T21:06:22.358Z,5.63
2018-05-03T21:08:48.823Z,5.37
2018-05-03T21:11:15.349Z,4.65
2018-05-03T21:13:42.161Z,4.70
2018-05-03T21:16:09.340Z,5.05
2018-05-03T21:18:36.980Z,4.65
2018-05-03T21:21:03.496Z,4.62
2018-05-03T21:23:30.683Z,4.30
2018-05-03T21:25:57.113Z,4.68
2018-05-03T21:28:23.529Z,4.10
2018-05-03T21:30:50.070Z,5.32
2018-05-03T21:33:17.336Z,4.70
2018-05-03T21:35:43.737Z,4.03
2018-05-03T21:38:10.135Z,4.53
2018-05-03T21:40:36.570Z,5.07
2018-05-03T21:43:03.005Z,4.20
2018-05-03T21:45:30.198Z,4.62
2018-05-03T21:47:56.588Z,4.87
2018-05-03T21:50:23.012Z,4.47
2018-05-03T21:52:49.462Z,4.30
2018-05-03T21:55:16.636Z,4.62
2018-05-03T21:57:43.065Z,4.30
2018-05-03T22:00:09.489Z,4.65
2018-05-03T22:02:35.900Z,4.70
2018-05-03T22:05:03.129Z,3.95
2018-05-03T22:07:29.697Z,4.43
2018-05-03T22:09:56.093Z,4.60
2018-05-03T22:12:22.504Z,3.92
2018-05-03T22:14:49.025Z,4.43
2018-05-03T22:17:15.444Z,4.78
2018-05-03T22:19:42.632Z,3.78
2018-05-03T22:22:09.112Z,4.70
2018-05-03T22:24:35.597Z,3.83
2018-05-03T22:27:02.041Z,4.45
2018-05-03T22:29:28.574Z,4.37
2018-05-03T22:31:55.070Z,4.40
2018-05-03T22:34:21.549Z,4.10
2018-05-03T22:36:48.024Z,4.10
2018-05-03T22:39:14.432Z,3.85
2018-05-03T22:41:41.631Z,5.57
2018-05-03T22:44:08.039Z,4.43
2018-05-03T22:46:34.454Z,4.53
2018-05-03T22:49:00.864Z,5.15
2018-05-03T22:51:28.009Z,5.05
2018-05-03T22:53:55.192Z,4.12
2018-05-03T22:56:21.644Z,3.80
2018-05-03T22:58:48.105Z,4.55
2018-05-03T23:01:14.600Z,4.05
2018-05-03T23:03:41.065Z,4.60
2018-05-03T23:06:07.460Z,4.60
2018-05-03T23:08:33.858Z,4.55
2018-05-03T23:11:00.221Z,4.95
2018-05-03T23:13:26.613Z,4.40
2018-05-03T23:15:52.989Z,4.82
2018-05-03T23:18:19.379Z,4.70
2018-05-03T23:20:45.749Z,4.25
2018-05-03T23:23:12.155Z,4.50
2018-05-03T23:25:38.525Z,5.00
2018-05-03T23:28:04.923Z,5.07
2018-05-03T23:30:31.366Z,3.85
2018-05-03T23:32:57.673Z,4.50
2018-05-03T23:35:24.835Z,5.30
2018-05-03T23:37:51.248Z,4.50
2018-05-03T23:40:18.417Z,4.82
2018-05-03T23:42:44.821Z,4.53
2018-05-03T23:45:11.218Z,4.60
2018-05-03T23:47:37.648Z,5.00
2018-05-03T23:50:04.058Z,5.72
2018-05-03T23:52:30.472Z,6.03
2018-05-03T23:54:56.848Z,5.37
2018-05-03T23:57:23.282Z,5.43
2018-05-03T23:59:50.434Z,5.45
